sensor_id;sensor_type;location;lat;lon;timestamp;temperature;humidity
24097;DHT22;12275;48.550;12.132;2022-07-23T00:01:33;24.90;99.90
24097;DHT22;12275;48.550;12.132;2022-07-23T00:03:59;25.00;99.90
24097;DHT22;12275;48.550;12.132;2022-07-23T00:06:24;25.10;99.90
24097;DHT22;12275;48.550;12.132;2022-07-23T00:08:50;25.10;99.90
24097;DHT22;12275;48.550;12.132;2022-07-23T00:11:16;25.20;99.90
24097;DHT22;12275;48.550;12.132;2022-07-23T00:13:42;25.10;99.90
24097;DHT22;12275;48.550;12.132;2022-07-23T00:16:08;25.20;99.90
24097;DHT22;12275;48.550;12.132;2022-07-23T00:18:34;25.20;99.90
24097;DHT22;12275;48.550;12.132;2022-07-23T00:21:00;25.10;99.90
24097;DHT22;12275;48.550;12.132;2022-07-23T00:23:25;25.10;99.90
24097;DHT22;12275;48.550;12.132;2022-07-23T00:25:53;24.90;99.90
24097;DHT22;12275;48.550;12.132;2022-07-23T00:28:18;24.90;99.90
24097;DHT22;12275;48.550;12.132;2022-07-23T00:30:44;25.00;99.90
24097;DHT22;12275;48.550;12.132;2022-07-23T00:33:10;25.10;99.90
24097;DHT22;12275;48.550;12.132;2022-07-23T00:35:39;25.10;99.90
24097;DHT22;12275;48.550;12.132;2022-07-23T00:38:10;25.10;99.90
24097;DHT22;12275;48.550;12.132;2022-07-23T00:40:36;25.10;99.90
24097;DHT22;12275;48.550;12.132;2022-07-23T00:43:02;25.10;99.90
24097;DHT22;12275;48.550;12.132;2022-07-23T00:45:28;25.10;99.90
24097;DHT22;12275;48.550;12.132;2022-07-23T00:47:54;25.10;99.90
24097;DHT22;12275;48.550;12.132;2022-07-23T00:50:20;25.10;99.90
24097;DHT22;12275;48.550;12.132;2022-07-23T00:52:46;25.00;99.90
24097;DHT22;12275;48.550;12.132;2022-07-23T00:55:12;24.90;99.90
24097;DHT22;12275;48.550;12.132;2022-07-23T00:57:39;24.80;99.90
24097;DHT22;12275;48.550;12.132;2022-07-23T01:00:07;24.80;99.90
24097;DHT22;12275;48.550;12.132;2022-07-23T01:02:33;24.90;99.90
24097;DHT22;12275;48.550;12.132;2022-07-23T01:04:59;25.00;99.90
24097;DHT22;12275;48.550;12.132;2022-07-23T01:07:24;25.00;99.90
24097;DHT22;12275;48.550;12.132;2022-07-23T01:09:51;25.10;99.90
24097;DHT22;12275;48.550;12.132;2022-07-23T01:12:17;24.90;99.90
24097;DHT22;12275;48.550;12.132;2022-07-23T01:14:43;24.90;99.90
24097;DHT22;12275;48.550;12.132;2022-07-23T01:17:09;24.90;99.90
24097;DHT22;12275;48.550;12.132;2022-07-23T01:19:35;24.90;99.90
24097;DHT22;12275;48.550;12.132;2022-07-23T01:22:03;25.00;99.90
24097;DHT22;12275;48.550;12.132;2022-07-23T01:24:29;25.00;99.90
24097;DHT22;12275;48.550;12.132;2022-07-23T01:26:54;24.90;99.90
24097;DHT22;12275;48.550;12.132;2022-07-23T01:29:20;24.80;99.90
24097;DHT22;12275;48.550;12.132;2022-07-23T01:31:47;24.80;99.90
24097;DHT22;12275;48.550;12.132;2022-07-23T01:34:13;24.80;99.90
24097;DHT22;12275;48.550;12.132;2022-07-23T01:36:39;24.60;99.90
24097;DHT22;12275;48.550;12.132;2022-07-23T01:39:06;24.50;99.90
24097;DHT22;12275;48.550;12.132;2022-07-23T01:41:33;24.60;99.90
24097;DHT22;12275;48.550;12.132;2022-07-23T01:43:59;24.60;99.90
24097;DHT22;12275;48.550;12.132;2022-07-23T01:46:24;24.60;99.90
24097;DHT22;12275;48.550;12.132;2022-07-23T01:48:50;24.60;99.90
24097;DHT22;12275;48.550;12.132;2022-07-23T01:51:16;24.50;99.90
24097;DHT22;12275;48.550;12.132;2022-07-23T01:53:41;24.50;99.90
24097;DHT22;12275;48.550;12.132;2022-07-23T01:56:07;24.40;99.90
24097;DHT22;12275;48.550;12.132;2022-07-23T01:58:33;24.40;99.90
24097;DHT22;12275;48.550;12.132;2022-07-23T02:00:59;24.40;99.90
24097;DHT22;12275;48.550;12.132;2022-07-23T02:03:25;24.40;99.90
24097;DHT22;12275;48.550;12.132;2022-07-23T02:05:51;24.40;99.90
24097;DHT22;12275;48.550;12.132;2022-07-23T02:08:17;24.40;99.90
24097;DHT22;12275;48.550;12.132;2022-07-23T02:10:43;24.40;99.90
24097;DHT22;12275;48.550;12.132;2022-07-23T02:13:09;24.40;99.90
24097;DHT22;12275;48.550;12.132;2022-07-23T02:15:35;24.20;99.90
24097;DHT22;12275;48.550;12.132;2022-07-23T02:18:00;24.20;99.90
24097;DHT22;12275;48.550;12.132;2022-07-23T02:20:26;24.20;99.90
24097;DHT22;12275;48.550;12.132;2022-07-23T02:22:52;24.20;99.90
24097;DHT22;12275;48.550;12.132;2022-07-23T02:25:18;24.20;99.90
24097;DHT22;12275;48.550;12.132;2022-07-23T02:27:43;24.20;99.90
24097;DHT22;12275;48.550;12.132;2022-07-23T02:30:10;24.20;99.90
24097;DHT22;12275;48.550;12.132;2022-07-23T02:32:36;24.20;99.90
24097;DHT22;12275;48.550;12.132;2022-07-23T02:35:03;24.00;99.90
24097;DHT22;12275;48.550;12.132;2022-07-23T02:37:29;24.00;99.90
24097;DHT22;12275;48.550;12.132;2022-07-23T02:39:54;24.00;99.90
24097;DHT22;12275;48.550;12.132;2022-07-23T02:42:20;23.90;99.90
24097;DHT22;12275;48.550;12.132;2022-07-23T02:44:46;23.90;99.90
24097;DHT22;12275;48.550;12.132;2022-07-23T02:47:12;23.80;99.90
24097;DHT22;12275;48.550;12.132;2022-07-23T02:49:38;23.70;99.90
24097;DHT22;12275;48.550;12.132;2022-07-23T02:52:04;23.60;99.90
24097;DHT22;12275;48.550;12.132;2022-07-23T02:54:29;23.60;99.90
24097;DHT22;12275;48.550;12.132;2022-07-23T02:56:55;23.50;99.90
24097;DHT22;12275;48.550;12.132;2022-07-23T02:59:21;23.40;99.90
24097;DHT22;12275;48.550;12.132;2022-07-23T03:01:46;23.30;99.90
24097;DHT22;12275;48.550;12.132;2022-07-23T03:04:12;23.30;99.90
24097;DHT22;12275;48.550;12.132;2022-07-23T03:06:38;23.20;99.90
24097;DHT22;12275;48.550;12.132;2022-07-23T03:09:04;23.00;99.90
24097;DHT22;12275;48.550;12.132;2022-07-23T03:11:30;22.70;99.90
24097;DHT22;12275;48.550;12.132;2022-07-23T03:13:56;22.30;99.90
24097;DHT22;12275;48.550;12.132;2022-07-23T03:16:21;22.00;99.90
24097;DHT22;12275;48.550;12.132;2022-07-23T03:18:47;21.90;99.90
24097;DHT22;12275;48.550;12.132;2022-07-23T03:21:13;21.90;99.90
24097;DHT22;12275;48.550;12.132;2022-07-23T03:23:38;22.00;99.90
24097;DHT22;12275;48.550;12.132;2022-07-23T03:26:04;22.00;99.90
24097;DHT22;12275;48.550;12.132;2022-07-23T03:28:30;22.10;99.90
24097;DHT22;12275;48.550;12.132;2022-07-23T03:30:56;22.20;99.90
24097;DHT22;12275;48.550;12.132;2022-07-23T03:33:22;22.40;99.90
24097;DHT22;12275;48.550;12.132;2022-07-23T03:35:48;22.40;99.90
24097;DHT22;12275;48.550;12.132;2022-07-23T03:38:14;22.00;99.90
24097;DHT22;12275;48.550;12.132;2022-07-23T03:40:40;21.70;99.90
24097;DHT22;12275;48.550;12.132;2022-07-23T03:43:06;21.70;99.90
24097;DHT22;12275;48.550;12.132;2022-07-23T03:45:32;21.90;99.90
24097;DHT22;12275;48.550;12.132;2022-07-23T03:47:57;22.00;99.90
24097;DHT22;12275;48.550;12.132;2022-07-23T03:50:24;21.90;99.90
24097;DHT22;12275;48.550;12.132;2022-07-23T03:52:50;21.90;99.90
24097;DHT22;12275;48.550;12.132;2022-07-23T03:55:15;21.70;99.90
24097;DHT22;12275;48.550;12.132;2022-07-23T03:57:41;21.80;99.90
24097;DHT22;12275;48.550;12.132;2022-07-23T04:00:09;21.80;99.90
24097;DHT22;12275;48.550;12.132;2022-07-23T04:02:35;21.90;99.90
24097;DHT22;12275;48.550;12.132;2022-07-23T04:05:01;21.90;99.90
24097;DHT22;12275;48.550;12.132;2022-07-23T04:07:27;21.70;99.90
24097;DHT22;12275;48.550;12.132;2022-07-23T04:09:53;21.80;99.90
24097;DHT22;12275;48.550;12.132;2022-07-23T04:12:19;21.70;99.90
24097;DHT22;12275;48.550;12.132;2022-07-23T04:14:45;21.60;99.90
24097;DHT22;12275;48.550;12.132;2022-07-23T04:17:11;21.80;99.90
24097;DHT22;12275;48.550;12.132;2022-07-23T04:19:37;21.80;99.90
24097;DHT22;12275;48.550;12.132;2022-07-23T04:22:08;21.90;99.90
24097;DHT22;12275;48.550;12.132;2022-07-23T04:24:34;21.90;99.90
24097;DHT22;12275;48.550;12.132;2022-07-23T04:27:01;21.90;99.90
24097;DHT22;12275;48.550;12.132;2022-07-23T04:29:26;21.90;99.90
24097;DHT22;12275;48.550;12.132;2022-07-23T04:31:52;21.90;99.90
24097;DHT22;12275;48.550;12.132;2022-07-23T04:34:18;22.00;99.90
24097;DHT22;12275;48.550;12.132;2022-07-23T04:36:44;22.00;99.90
24097;DHT22;12275;48.550;12.132;2022-07-23T04:39:10;22.10;99.90
24097;DHT22;12275;48.550;12.132;2022-07-23T04:41:36;22.10;99.90
24097;DHT22;12275;48.550;12.132;2022-07-23T04:44:02;22.10;99.90
24097;DHT22;12275;48.550;12.132;2022-07-23T04:46:27;22.10;99.90
24097;DHT22;12275;48.550;12.132;2022-07-23T04:48:53;22.10;99.90
24097;DHT22;12275;48.550;12.132;2022-07-23T04:51:19;22.00;99.90
24097;DHT22;12275;48.550;12.132;2022-07-23T04:53:45;22.10;99.90
24097;DHT22;12275;48.550;12.132;2022-07-23T04:56:10;22.00;99.90
24097;DHT22;12275;48.550;12.132;2022-07-23T04:58:36;21.90;99.90
24097;DHT22;12275;48.550;12.132;2022-07-23T05:01:02;21.80;99.90
24097;DHT22;12275;48.550;12.132;2022-07-23T05:03:28;21.70;99.90
24097;DHT22;12275;48.550;12.132;2022-07-23T05:05:53;21.80;99.90
24097;DHT22;12275;48.550;12.132;2022-07-23T05:08:23;21.70;99.90
24097;DHT22;12275;48.550;12.132;2022-07-23T05:10:52;21.80;99.90
24097;DHT22;12275;48.550;12.132;2022-07-23T05:13:18;21.80;99.90
24097;DHT22;12275;48.550;12.132;2022-07-23T05:15:44;21.70;99.90
24097;DHT22;12275;48.550;12.132;2022-07-23T05:18:10;21.80;99.90
24097;DHT22;12275;48.550;12.132;2022-07-23T05:20:36;21.80;99.90
24097;DHT22;12275;48.550;12.132;2022-07-23T05:23:01;21.70;99.90
24097;DHT22;12275;48.550;12.132;2022-07-23T05:25:27;21.70;99.90
24097;DHT22;12275;48.550;12.132;2022-07-23T05:27:54;21.60;99.90
24097;DHT22;12275;48.550;12.132;2022-07-23T05:30:20;21.40;99.90
24097;DHT22;12275;48.550;12.132;2022-07-23T05:32:50;21.40;99.90
24097;DHT22;12275;48.550;12.132;2022-07-23T05:35:17;21.40;99.90
24097;DHT22;12275;48.550;12.132;2022-07-23T05:37:43;21.60;99.90
24097;DHT22;12275;48.550;12.132;2022-07-23T05:40:10;21.70;99.90
24097;DHT22;12275;48.550;12.132;2022-07-23T05:42:40;21.80;99.90
24097;DHT22;12275;48.550;12.132;2022-07-23T05:45:08;22.00;99.90
24097;DHT22;12275;48.550;12.132;2022-07-23T05:48:00;22.00;99.90
24097;DHT22;12275;48.550;12.132;2022-07-23T05:50:25;22.10;99.90
24097;DHT22;12275;48.550;12.132;2022-07-23T05:52:52;22.00;99.90
24097;DHT22;12275;48.550;12.132;2022-07-23T05:55:18;22.00;99.90
24097;DHT22;12275;48.550;12.132;2022-07-23T05:57:44;22.10;99.90
24097;DHT22;12275;48.550;12.132;2022-07-23T06:00:10;22.10;99.90
24097;DHT22;12275;48.550;12.132;2022-07-23T06:02:40;22.10;99.90
24097;DHT22;12275;48.550;12.132;2022-07-23T06:05:27;22.10;99.90
24097;DHT22;12275;48.550;12.132;2022-07-23T06:08:19;22.20;99.90
24097;DHT22;12275;48.550;12.132;2022-07-23T06:10:45;22.30;99.90
24097;DHT22;12275;48.550;12.132;2022-07-23T06:13:11;22.50;99.90
24097;DHT22;12275;48.550;12.132;2022-07-23T06:15:37;22.50;99.90
24097;DHT22;12275;48.550;12.132;2022-07-23T06:18:06;22.50;99.90
24097;DHT22;12275;48.550;12.132;2022-07-23T06:20:31;22.50;99.90
24097;DHT22;12275;48.550;12.132;2022-07-23T06:22:57;22.50;99.90
24097;DHT22;12275;48.550;12.132;2022-07-23T06:25:23;22.50;99.90
24097;DHT22;12275;48.550;12.132;2022-07-23T06:27:48;22.50;99.90
24097;DHT22;12275;48.550;12.132;2022-07-23T06:30:16;22.40;99.90
24097;DHT22;12275;48.550;12.132;2022-07-23T06:32:44;22.40;99.90
24097;DHT22;12275;48.550;12.132;2022-07-23T06:35:11;22.40;99.90
24097;DHT22;12275;48.550;12.132;2022-07-23T06:37:39;22.40;99.90
24097;DHT22;12275;48.550;12.132;2022-07-23T06:40:12;22.50;99.90
24097;DHT22;12275;48.550;12.132;2022-07-23T06:42:39;22.50;99.90
24097;DHT22;12275;48.550;12.132;2022-07-23T06:45:07;22.50;99.90
24097;DHT22;12275;48.550;12.132;2022-07-23T06:47:33;22.50;99.90
24097;DHT22;12275;48.550;12.132;2022-07-23T06:49:59;22.50;99.90
24097;DHT22;12275;48.550;12.132;2022-07-23T06:52:24;22.40;99.90
24097;DHT22;12275;48.550;12.132;2022-07-23T06:54:51;22.40;99.90
24097;DHT22;12275;48.550;12.132;2022-07-23T06:57:17;22.50;99.90
24097;DHT22;12275;48.550;12.132;2022-07-23T06:59:43;22.50;99.90
24097;DHT22;12275;48.550;12.132;2022-07-23T07:02:09;22.60;99.90
24097;DHT22;12275;48.550;12.132;2022-07-23T07:04:35;22.60;99.90
24097;DHT22;12275;48.550;12.132;2022-07-23T07:07:01;22.60;99.90
24097;DHT22;12275;48.550;12.132;2022-07-23T07:09:26;22.60;99.90
24097;DHT22;12275;48.550;12.132;2022-07-23T07:11:52;22.60;99.90
24097;DHT22;12275;48.550;12.132;2022-07-23T07:14:18;22.60;99.90
24097;DHT22;12275;48.550;12.132;2022-07-23T07:16:44;22.70;99.90
24097;DHT22;12275;48.550;12.132;2022-07-23T07:19:09;22.70;99.90
24097;DHT22;12275;48.550;12.132;2022-07-23T07:21:35;22.70;99.90
24097;DHT22;12275;48.550;12.132;2022-07-23T07:24:01;22.70;99.90
24097;DHT22;12275;48.550;12.132;2022-07-23T07:26:27;22.70;99.90
24097;DHT22;12275;48.550;12.132;2022-07-23T07:28:53;22.80;99.90
24097;DHT22;12275;48.550;12.132;2022-07-23T07:31:19;22.80;99.90
24097;DHT22;12275;48.550;12.132;2022-07-23T07:33:44;22.80;99.90
24097;DHT22;12275;48.550;12.132;2022-07-23T07:36:10;22.80;99.90
24097;DHT22;12275;48.550;12.132;2022-07-23T07:38:36;22.80;99.90
24097;DHT22;12275;48.550;12.132;2022-07-23T07:41:02;22.80;99.90
24097;DHT22;12275;48.550;12.132;2022-07-23T07:43:27;22.80;99.90
24097;DHT22;12275;48.550;12.132;2022-07-23T07:45:53;22.80;99.90
24097;DHT22;12275;48.550;12.132;2022-07-23T07:48:19;22.80;99.90
24097;DHT22;12275;48.550;12.132;2022-07-23T07:50:44;22.80;99.90
24097;DHT22;12275;48.550;12.132;2022-07-23T07:53:10;22.80;99.90
24097;DHT22;12275;48.550;12.132;2022-07-23T07:55:35;22.80;99.90
24097;DHT22;12275;48.550;12.132;2022-07-23T07:58:01;22.80;99.90
24097;DHT22;12275;48.550;12.132;2022-07-23T08:00:27;22.90;99.90
24097;DHT22;12275;48.550;12.132;2022-07-23T08:02:54;23.00;99.90
24097;DHT22;12275;48.550;12.132;2022-07-23T08:05:27;23.00;99.90
24097;DHT22;12275;48.550;12.132;2022-07-23T08:07:54;23.00;99.90
24097;DHT22;12275;48.550;12.132;2022-07-23T08:10:20;23.10;99.90
24097;DHT22;12275;48.550;12.132;2022-07-23T08:12:48;23.20;99.90
24097;DHT22;12275;48.550;12.132;2022-07-23T08:15:16;23.20;99.90
24097;DHT22;12275;48.550;12.132;2022-07-23T08:17:43;23.20;99.90
24097;DHT22;12275;48.550;12.132;2022-07-23T08:20:11;23.20;99.90
24097;DHT22;12275;48.550;12.132;2022-07-23T08:22:53;23.20;99.90
24097;DHT22;12275;48.550;12.132;2022-07-23T08:25:27;23.20;99.90
24097;DHT22;12275;48.550;12.132;2022-07-23T08:27:56;23.20;99.90
24097;DHT22;12275;48.550;12.132;2022-07-23T08:30:22;23.20;99.90
24097;DHT22;12275;48.550;12.132;2022-07-23T08:32:59;23.20;99.90
24097;DHT22;12275;48.550;12.132;2022-07-23T08:35:33;23.30;99.90
24097;DHT22;12275;48.550;12.132;2022-07-23T08:38:00;23.20;99.90
24097;DHT22;12275;48.550;12.132;2022-07-23T08:40:28;23.40;99.90
24097;DHT22;12275;48.550;12.132;2022-07-23T08:42:54;23.40;99.90
24097;DHT22;12275;48.550;12.132;2022-07-23T08:45:22;23.40;99.90
24097;DHT22;12275;48.550;12.132;2022-07-23T08:47:50;23.40;99.90
24097;DHT22;12275;48.550;12.132;2022-07-23T08:50:16;23.40;99.90
24097;DHT22;12275;48.550;12.132;2022-07-23T08:52:41;23.40;99.90
24097;DHT22;12275;48.550;12.132;2022-07-23T08:55:08;23.40;99.90
24097;DHT22;12275;48.550;12.132;2022-07-23T08:57:34;23.40;99.90
24097;DHT22;12275;48.550;12.132;2022-07-23T09:00:00;23.50;99.90
24097;DHT22;12275;48.550;12.132;2022-07-23T09:02:26;23.40;99.90
24097;DHT22;12275;48.550;12.132;2022-07-23T09:04:52;23.30;99.90
24097;DHT22;12275;48.550;12.132;2022-07-23T09:07:18;23.40;99.90
24097;DHT22;12275;48.550;12.132;2022-07-23T09:09:44;23.40;99.90
24097;DHT22;12275;48.550;12.132;2022-07-23T09:12:10;23.40;99.90
24097;DHT22;12275;48.550;12.132;2022-07-23T09:14:45;23.30;99.90
24097;DHT22;12275;48.550;12.132;2022-07-23T09:17:16;23.30;99.90
24097;DHT22;12275;48.550;12.132;2022-07-23T09:19:43;23.30;99.90
24097;DHT22;12275;48.550;12.132;2022-07-23T09:22:27;23.30;99.90
24097;DHT22;12275;48.550;12.132;2022-07-23T09:27:55;23.20;99.90
24097;DHT22;12275;48.550;12.132;2022-07-23T09:30:23;23.20;99.90
24097;DHT22;12275;48.550;12.132;2022-07-23T09:33:09;23.20;99.90
24097;DHT22;12275;48.550;12.132;2022-07-23T09:35:54;23.20;99.90
24097;DHT22;12275;48.550;12.132;2022-07-23T09:38:24;23.20;99.90
24097;DHT22;12275;48.550;12.132;2022-07-23T09:41:11;23.10;99.90
24097;DHT22;12275;48.550;12.132;2022-07-23T09:43:38;23.10;99.90
24097;DHT22;12275;48.550;12.132;2022-07-23T09:46:25;23.10;99.90
24097;DHT22;12275;48.550;12.132;2022-07-23T09:48:55;23.10;99.90
24097;DHT22;12275;48.550;12.132;2022-07-23T09:51:23;23.20;99.90
24097;DHT22;12275;48.550;12.132;2022-07-23T09:53:54;23.20;99.90
24097;DHT22;12275;48.550;12.132;2022-07-23T09:56:20;23.30;99.90
24097;DHT22;12275;48.550;12.132;2022-07-23T09:58:50;23.30;99.90
24097;DHT22;12275;48.550;12.132;2022-07-23T10:01:28;23.40;99.90
24097;DHT22;12275;48.550;12.132;2022-07-23T10:03:54;23.50;99.90
24097;DHT22;12275;48.550;12.132;2022-07-23T10:06:21;23.80;99.90
24097;DHT22;12275;48.550;12.132;2022-07-23T10:08:48;24.20;99.90
24097;DHT22;12275;48.550;12.132;2022-07-23T10:11:16;24.20;99.90
24097;DHT22;12275;48.550;12.132;2022-07-23T10:13:42;24.50;99.90
24097;DHT22;12275;48.550;12.132;2022-07-23T10:16:20;24.70;99.90
24097;DHT22;12275;48.550;12.132;2022-07-23T10:18:46;24.90;99.90
24097;DHT22;12275;48.550;12.132;2022-07-23T10:21:18;25.00;99.90
24097;DHT22;12275;48.550;12.132;2022-07-23T10:36:03;25.00;99.90
24097;DHT22;12275;48.550;12.132;2022-07-23T10:38:53;25.10;99.90
24097;DHT22;12275;48.550;12.132;2022-07-23T10:41:35;25.10;99.90
24097;DHT22;12275;48.550;12.132;2022-07-23T10:44:15;25.10;99.90
24097;DHT22;12275;48.550;12.132;2022-07-23T10:47:07;25.30;99.90
24097;DHT22;12275;48.550;12.132;2022-07-23T10:49:34;25.20;99.90
24097;DHT22;12275;48.550;12.132;2022-07-23T10:54:45;25.30;99.90
24097;DHT22;12275;48.550;12.132;2022-07-23T10:57:13;25.30;99.90
24097;DHT22;12275;48.550;12.132;2022-07-23T11:02:35;25.40;99.90
24097;DHT22;12275;48.550;12.132;2022-07-23T11:05:06;25.50;99.90
24097;DHT22;12275;48.550;12.132;2022-07-23T11:07:32;25.50;99.90
24097;DHT22;12275;48.550;12.132;2022-07-23T11:09:58;25.60;99.90
24097;DHT22;12275;48.550;12.132;2022-07-23T11:17:28;25.80;99.90
24097;DHT22;12275;48.550;12.132;2022-07-23T11:22:36;26.00;99.90
24097;DHT22;12275;48.550;12.132;2022-07-23T11:25:03;26.00;99.90
24097;DHT22;12275;48.550;12.132;2022-07-23T11:27:43;26.00;99.90
24097;DHT22;12275;48.550;12.132;2022-07-23T11:30:10;26.00;99.90
24097;DHT22;12275;48.550;12.132;2022-07-23T11:32:39;26.10;99.90
24097;DHT22;12275;48.550;12.132;2022-07-23T11:35:27;25.90;99.90
24097;DHT22;12275;48.550;12.132;2022-07-23T11:38:02;25.70;99.90
24097;DHT22;12275;48.550;12.132;2022-07-23T11:40:28;25.50;99.90
24097;DHT22;12275;48.550;12.132;2022-07-23T11:42:58;25.30;99.90
24097;DHT22;12275;48.550;12.132;2022-07-23T11:45:29;25.20;99.90
24097;DHT22;12275;48.550;12.132;2022-07-23T11:47:56;25.10;99.90
24097;DHT22;12275;48.550;12.132;2022-07-23T11:50:24;25.10;99.90
24097;DHT22;12275;48.550;12.132;2022-07-23T11:52:51;25.10;99.90
24097;DHT22;12275;48.550;12.132;2022-07-23T11:55:17;25.20;99.90
24097;DHT22;12275;48.550;12.132;2022-07-23T11:57:43;25.40;99.90
24097;DHT22;12275;48.550;12.132;2022-07-23T12:00:29;25.50;99.90
24097;DHT22;12275;48.550;12.132;2022-07-23T12:03:02;25.70;99.90
24097;DHT22;12275;48.550;12.132;2022-07-23T12:05:30;25.70;99.90
24097;DHT22;12275;48.550;12.132;2022-07-23T12:07:57;25.80;99.90
24097;DHT22;12275;48.550;12.132;2022-07-23T12:13:02;25.70;99.90
24097;DHT22;12275;48.550;12.132;2022-07-23T12:15:31;25.70;99.90
24097;DHT22;12275;48.550;12.132;2022-07-23T12:17:59;25.70;99.90
24097;DHT22;12275;48.550;12.132;2022-07-23T12:20:29;25.80;99.90
24097;DHT22;12275;48.550;12.132;2022-07-23T12:23:00;25.90;99.90
24097;DHT22;12275;48.550;12.132;2022-07-23T12:25:31;26.00;99.90
24097;DHT22;12275;48.550;12.132;2022-07-23T12:30:32;26.00;99.90
24097;DHT22;12275;48.550;12.132;2022-07-23T12:32:59;26.00;99.90
24097;DHT22;12275;48.550;12.132;2022-07-23T12:35:31;26.00;99.90
24097;DHT22;12275;48.550;12.132;2022-07-23T12:38:01;26.10;99.90
24097;DHT22;12275;48.550;12.132;2022-07-23T12:43:25;26.00;99.90
24097;DHT22;12275;48.550;12.132;2022-07-23T12:46:03;26.00;99.90
24097;DHT22;12275;48.550;12.132;2022-07-23T12:48:34;26.00;99.90
24097;DHT22;12275;48.550;12.132;2022-07-23T12:51:05;26.00;99.90
24097;DHT22;12275;48.550;12.132;2022-07-23T12:53:40;25.90;99.90
24097;DHT22;12275;48.550;12.132;2022-07-23T12:56:13;25.90;99.90
24097;DHT22;12275;48.550;12.132;2022-07-23T13:06:32;26.10;99.90
24097;DHT22;12275;48.550;12.132;2022-07-23T13:08:59;26.00;99.90
24097;DHT22;12275;48.550;12.132;2022-07-23T13:11:24;26.10;99.90
24097;DHT22;12275;48.550;12.132;2022-07-23T13:13:50;26.10;99.90
24097;DHT22;12275;48.550;12.132;2022-07-23T13:16:17;26.20;99.90
24097;DHT22;12275;48.550;12.132;2022-07-23T13:18:42;26.20;99.90
24097;DHT22;12275;48.550;12.132;2022-07-23T13:21:09;26.30;99.90
24097;DHT22;12275;48.550;12.132;2022-07-23T13:23:35;26.50;99.90
24097;DHT22;12275;48.550;12.132;2022-07-23T13:26:00;26.50;99.90
24097;DHT22;12275;48.550;12.132;2022-07-23T13:28:26;26.50;99.90
24097;DHT22;12275;48.550;12.132;2022-07-23T13:30:52;26.60;99.90
24097;DHT22;12275;48.550;12.132;2022-07-23T13:33:20;26.60;99.90
24097;DHT22;12275;48.550;12.132;2022-07-23T13:35:47;26.50;99.90
24097;DHT22;12275;48.550;12.132;2022-07-23T13:38:13;26.50;99.90
24097;DHT22;12275;48.550;12.132;2022-07-23T13:40:41;26.40;99.90
24097;DHT22;12275;48.550;12.132;2022-07-23T13:43:09;26.30;99.90
24097;DHT22;12275;48.550;12.132;2022-07-23T13:45:36;26.30;99.90
24097;DHT22;12275;48.550;12.132;2022-07-23T13:48:03;26.30;99.90
24097;DHT22;12275;48.550;12.132;2022-07-23T13:50:29;26.30;99.90
24097;DHT22;12275;48.550;12.132;2022-07-23T13:52:55;26.30;99.90
24097;DHT22;12275;48.550;12.132;2022-07-23T13:55:21;26.20;99.90
24097;DHT22;12275;48.550;12.132;2022-07-23T13:57:46;26.20;99.90
24097;DHT22;12275;48.550;12.132;2022-07-23T14:00:13;26.10;99.90
24097;DHT22;12275;48.550;12.132;2022-07-23T14:02:40;26.10;99.90
24097;DHT22;12275;48.550;12.132;2022-07-23T14:05:08;26.20;99.90
24097;DHT22;12275;48.550;12.132;2022-07-23T14:07:35;26.20;99.90
24097;DHT22;12275;48.550;12.132;2022-07-23T14:10:02;26.20;99.90
24097;DHT22;12275;48.550;12.132;2022-07-23T14:12:28;26.20;99.90
24097;DHT22;12275;48.550;12.132;2022-07-23T14:14:54;26.30;99.90
24097;DHT22;12275;48.550;12.132;2022-07-23T14:17:20;26.30;99.90
24097;DHT22;12275;48.550;12.132;2022-07-23T14:19:45;26.40;99.90
24097;DHT22;12275;48.550;12.132;2022-07-23T14:22:11;26.40;99.90
24097;DHT22;12275;48.550;12.132;2022-07-23T14:24:37;26.40;99.90
24097;DHT22;12275;48.550;12.132;2022-07-23T14:27:04;26.40;99.90
24097;DHT22;12275;48.550;12.132;2022-07-23T14:29:30;26.40;99.90
24097;DHT22;12275;48.550;12.132;2022-07-23T14:31:56;26.40;99.90
24097;DHT22;12275;48.550;12.132;2022-07-23T14:34:22;26.30;99.90
24097;DHT22;12275;48.550;12.132;2022-07-23T14:36:48;26.30;99.90
24097;DHT22;12275;48.550;12.132;2022-07-23T14:39:14;26.30;99.90
24097;DHT22;12275;48.550;12.132;2022-07-23T14:41:40;26.30;99.90
24097;DHT22;12275;48.550;12.132;2022-07-23T14:44:06;26.20;99.90
24097;DHT22;12275;48.550;12.132;2022-07-23T14:46:32;26.20;99.90
24097;DHT22;12275;48.550;12.132;2022-07-23T14:48:57;26.20;99.90
24097;DHT22;12275;48.550;12.132;2022-07-23T14:51:23;26.10;99.90
24097;DHT22;12275;48.550;12.132;2022-07-23T14:53:49;26.10;99.90
24097;DHT22;12275;48.550;12.132;2022-07-23T14:56:15;26.10;99.90
24097;DHT22;12275;48.550;12.132;2022-07-23T14:58:41;26.00;99.90
24097;DHT22;12275;48.550;12.132;2022-07-23T15:01:06;26.00;99.90
24097;DHT22;12275;48.550;12.132;2022-07-23T15:03:32;26.00;99.90
24097;DHT22;12275;48.550;12.132;2022-07-23T15:05:58;26.00;99.90
24097;DHT22;12275;48.550;12.132;2022-07-23T15:08:24;26.00;99.90
24097;DHT22;12275;48.550;12.132;2022-07-23T15:10:50;26.00;99.90
24097;DHT22;12275;48.550;12.132;2022-07-23T15:13:16;26.00;99.90
24097;DHT22;12275;48.550;12.132;2022-07-23T15:15:42;25.90;99.90
24097;DHT22;12275;48.550;12.132;2022-07-23T15:18:08;25.90;99.90
24097;DHT22;12275;48.550;12.132;2022-07-23T15:20:34;25.90;99.90
24097;DHT22;12275;48.550;12.132;2022-07-23T15:22:59;25.60;99.90
24097;DHT22;12275;48.550;12.132;2022-07-23T15:25:25;25.20;99.90
24097;DHT22;12275;48.550;12.132;2022-07-23T15:27:51;24.80;99.90
24097;DHT22;12275;48.550;12.132;2022-07-23T15:30:17;24.50;99.90
24097;DHT22;12275;48.550;12.132;2022-07-23T15:32:43;24.40;99.90
24097;DHT22;12275;48.550;12.132;2022-07-23T15:35:08;24.30;99.90
24097;DHT22;12275;48.550;12.132;2022-07-23T15:37:35;24.40;99.90
24097;DHT22;12275;48.550;12.132;2022-07-23T15:40:01;24.30;99.90
24097;DHT22;12275;48.550;12.132;2022-07-23T15:42:29;24.20;99.90
24097;DHT22;12275;48.550;12.132;2022-07-23T15:44:55;24.10;99.90
24097;DHT22;12275;48.550;12.132;2022-07-23T15:47:20;24.00;99.90
24097;DHT22;12275;48.550;12.132;2022-07-23T15:49:47;24.00;99.90
24097;DHT22;12275;48.550;12.132;2022-07-23T15:52:13;23.90;99.90
24097;DHT22;12275;48.550;12.132;2022-07-23T15:54:39;23.90;99.90
24097;DHT22;12275;48.550;12.132;2022-07-23T15:57:05;23.90;99.90
24097;DHT22;12275;48.550;12.132;2022-07-23T15:59:31;24.00;99.90
24097;DHT22;12275;48.550;12.132;2022-07-23T16:01:57;24.10;99.90